Time;durP1;ratioP1;P1;durP2;ratioP2;P2;SDS_P1;SDS_P2;PMS_P1;PMS_P2;Temp;Humidity;BMP_temperature;BMP_pressure;BME280_temperature;BME280_humidity;BME280_pressure;Samples;Min_cycle;Max_cycle;Signal;HPM_P1;HPM_P2
2022/09/03 00:01:20;;;;;;;2.05;0.90;;;;;;;8.76;62.46;99886.34;5035179;28;20416;-74
2022/09/03 00:04:02;;;;;;;1.95;1.20;;;;;;;8.72;63.13;99892.84;5017315;28;20049;-76
2022/09/03 00:06:37;;;;;;;4.10;2.22;;;;;;;8.70;63.20;99889.53;5035016;28;20057;-73
2022/09/03 00:09:24;;;;;;;4.43;2.65;;;;;;;8.67;62.78;99895.72;5043758;28;20049;-73
2022/09/03 00:12:07;;;;;;;8.18;3.10;;;;;;;8.63;63.05;99901.09;5055063;28;20049;-75
2022/09/03 00:14:41;;;;;;;4.95;2.85;;;;;;;8.63;63.30;99911.34;5054615;28;20056;-71
2022/09/03 00:17:15;;;;;;;5.32;3.50;;;;;;;8.58;63.55;99912.28;5055010;28;20148;-78
2022/09/03 00:19:51;;;;;;;5.43;2.20;;;;;;;8.56;63.37;99911.75;5055160;28;20076;-74
2022/09/03 00:22:23;;;;;;;3.08;1.70;;;;;;;8.53;63.98;99923.47;5020572;28;20056;-75
2022/09/03 00:24:51;;;;;;;3.97;1.92;;;;;;;8.48;63.80;99920.84;5054884;28;20056;-74
2022/09/03 00:27:24;;;;;;;3.13;1.60;;;;;;;8.48;64.04;99920.00;5054724;28;20060;-74
2022/09/03 00:29:58;;;;;;;3.58;1.60;;;;;;;8.46;63.82;99917.53;5054836;28;20072;-77
2022/09/03 00:32:58;;;;;;;2.13;1.38;;;;;;;8.45;64.17;99921.44;5054009;28;20049;-73
2022/09/03 00:35:30;;;;;;;2.33;1.02;;;;;;;8.45;63.92;99937.25;5054508;28;20072;-75
2022/09/03 00:37:58;;;;;;;1.83;1.00;;;;;;;8.44;64.04;99939.19;5054239;28;20059;-74
2022/09/03 00:40:40;;;;;;;2.38;1.02;;;;;;;8.45;64.19;99937.25;5036339;28;20044;-70
2022/09/03 00:43:08;;;;;;;2.92;1.30;;;;;;;8.40;64.56;99935.41;5054457;28;20045;-75
2022/09/03 00:45:50;;;;;;;2.38;1.08;;;;;;;8.39;64.67;99944.03;5054479;28;20052;-74
2022/09/03 00:48:36;;;;;;;2.70;1.10;;;;;;;8.37;64.62;99944.34;5054017;28;20048;-73
2022/09/03 00:52:05;;;;;;;3.85;1.35;;;;;;;8.31;64.92;99955.81;5054312;28;20098;-70
2022/09/03 00:55:00;;;;;;;2.13;1.15;;;;;;;8.28;64.60;99951.72;4968202;28;20064;-70
2022/09/03 00:57:47;;;;;;;6.30;1.40;;;;;;;8.29;64.66;99950.59;5054052;28;20053;-71
2022/09/03 01:00:20;;;;;;;2.42;1.17;;;;;;;8.28;64.44;99957.28;5053981;28;20077;-74
2022/09/03 01:02:50;;;;;;;2.85;1.30;;;;;;;8.24;65.12;99961.81;5054288;28;20045;-70
2022/09/03 01:05:36;;;;;;;3.25;1.38;;;;;;;8.19;65.09;99961.84;5054495;28;20056;-74
2022/09/03 01:08:29;;;;;;;5.82;1.52;;;;;;;8.14;65.47;99955.59;5053718;28;20080;-70
2022/09/03 01:11:22;;;;;;;7.97;1.45;;;;;;;8.14;65.63;99953.63;5053762;28;20083;-69
2022/09/03 01:13:54;;;;;;;2.40;1.40;;;;;;;8.12;65.59;99955.06;5053813;28;20075;-70
2022/09/03 01:17:03;;;;;;;3.47;1.10;;;;;;;8.08;65.25;99951.28;5053732;28;20060;-69
2022/09/03 01:19:35;;;;;;;1.67;1.00;;;;;;;8.06;65.58;99954.38;5014847;28;20412;-70
2022/09/03 01:22:31;;;;;;;2.53;1.50;;;;;;;8.00;65.45;99949.22;5053533;28;20400;-69
2022/09/03 01:25:31;;;;;;;2.60;1.27;;;;;;;8.01;65.84;99954.44;5039036;28;20049;-70
2022/09/03 01:28:20;;;;;;;5.65;1.20;;;;;;;7.99;65.99;99951.16;5033297;28;20057;-71
2022/09/03 01:31:25;;;;;;;2.35;1.23;;;;;;;8.01;65.81;99953.63;5033456;28;20416;-71
2022/09/03 01:34:16;;;;;;;3.95;1.13;;;;;;;8.00;65.86;99968.59;5005563;28;20496;-70
2022/09/03 01:37:08;;;;;;;2.88;1.17;;;;;;;7.99;65.93;99967.78;5039769;28;20043;-69
2022/09/03 01:39:44;;;;;;;2.83;1.25;;;;;;;7.99;65.94;99966.97;5053164;28;20045;-69
2022/09/03 01:42:49;;;;;;;2.30;1.45;;;;;;;7.98;66.20;99977.22;5052830;28;20056;-69
2022/09/03 01:45:26;;;;;;;4.70;1.42;;;;;;;7.96;65.51;99976.69;5053116;28;20049;-69
2022/09/03 01:48:04;;;;;;;2.50;1.60;;;;;;;8.00;65.79;99980.53;5053074;28;20114;-70
2022/09/03 01:50:48;;;;;;;4.40;1.65;;;;;;;8.01;65.91;99976.63;5053237;28;20087;-71
2022/09/03 01:53:51;;;;;;;2.42;1.42;;;;;;;8.00;65.63;99990.78;5067728;28;20106;-70
2022/09/03 01:56:56;;;;;;;2.33;1.40;;;;;;;7.94;65.96;99992.81;5025851;28;20049;-70
2022/09/03 01:59:26;;;;;;;3.60;1.58;;;;;;;7.89;66.27;99987.38;4974907;28;20050;-70
2022/09/03 02:02:05;;;;;;;4.68;1.10;;;;;;;7.88;66.04;99988.50;4991378;28;20046;-75
2022/09/03 02:04:32;;;;;;;3.17;1.48;;;;;;;7.87;66.24;99997.91;5039136;28;20060;-74
2022/09/03 02:07:00;;;;;;;2.65;1.40;;;;;;;7.90;66.39;100002.84;5072981;28;20044;-70
2022/09/03 02:09:28;;;;;;;4.35;1.83;;;;;;;7.89;66.20;100000.38;5072960;28;20055;-69
2022/09/03 02:12:15;;;;;;;2.17;1.50;;;;;;;7.91;66.13;100004.50;5072733;28;20503;-68
2022/09/03 02:14:42;;;;;;;2.53;1.42;;;;;;;7.88;66.23;100004.28;5019421;28;20045;-69
2022/09/03 02:17:10;;;;;;;3.72;1.55;;;;;;;7.83;66.08;100007.97;5032449;28;20141;-69
2022/09/03 02:19:38;;;;;;;4.20;1.33;;;;;;;7.78;66.16;100007.25;5014855;28;20053;-69
2022/09/03 02:22:05;;;;;;;2.35;1.50;;;;;;;7.71;66.49;100004.84;5032624;28;20045;-70
2022/09/03 02:24:32;;;;;;;2.90;1.50;;;;;;;7.74;66.52;100009.78;5032992;28;20045;-68
2022/09/03 02:26:59;;;;;;;2.72;1.50;;;;;;;7.76;66.31;100018.63;5043222;28;20442;-68
2022/09/03 02:29:26;;;;;;;3.13;1.63;;;;;;;7.75;66.18;100010.63;5052540;28;20044;-68
2022/09/03 02:31:53;;;;;;;3.92;1.80;;;;;;;7.72;66.63;100012.03;5034328;28;20049;-73
2022/09/03 02:34:20;;;;;;;4.85;1.80;;;;;;;7.70;66.47;100013.47;5052544;28;20420;-68
2022/09/03 02:36:47;;;;;;;3.60;1.80;;;;;;;7.69;66.44;100022.88;5051965;28;20048;-72
2022/09/03 02:39:15;;;;;;;2.58;1.80;;;;;;;7.63;66.28;100015.78;5052641;28;20053;-68
2022/09/03 02:41:43;;;;;;;2.75;1.55;;;;;;;7.66;66.45;100020.72;5052405;28;20049;-73
2022/09/03 02:44:10;;;;;;;3.25;1.60;;;;;;;7.65;66.58;100017.13;5052424;28;20500;-73
2022/09/03 02:46:45;;;;;;;3.10;1.80;;;;;;;7.66;66.39;100021.53;5049423;28;20056;-69
2022/09/03 02:49:12;;;;;;;3.38;2.03;;;;;;;7.62;66.44;100020.50;5032492;28;20041;-68
2022/09/03 02:51:42;;;;;;;3.13;1.88;;;;;;;7.67;67.13;100025.13;5032169;28;20056;-72
2022/09/03 02:54:10;;;;;;;6.20;1.93;;;;;;;7.64;66.71;100023.78;5032846;28;20056;-72
2022/09/03 02:56:37;;;;;;;2.78;1.60;;;;;;;7.63;66.96;100024.91;5036194;28;20673;-73
2022/09/03 02:59:06;;;;;;;5.43;2.30;;;;;;;7.61;66.94;100021.63;5036157;28;20046;-72
2022/09/03 03:01:35;;;;;;;6.10;2.20;;;;;;;7.65;67.12;100022.69;5036222;28;20054;-70
2022/09/03 03:04:02;;;;;;;5.13;1.83;;;;;;;7.70;66.75;100030.91;5018350;28;20042;-69
2022/09/03 03:06:29;;;;;;;3.67;2.05;;;;;;;7.73;66.89;100035.84;5036350;28;20050;-72
2022/09/03 03:08:56;;;;;;;9.07;1.90;;;;;;;7.75;66.83;100033.56;5034732;28;20140;-73
2022/09/03 03:11:25;;;;;;;3.75;1.90;;;;;;;7.77;66.57;100036.88;5034966;28;20056;-72
2022/09/03 03:13:52;;;;;;;3.08;1.95;;;;;;;7.81;66.63;100048.97;5036092;28;20049;-72
2022/09/03 03:16:19;;;;;;;4.38;1.88;;;;;;;7.82;66.59;100042.34;5042138;28;20044;-68
2022/09/03 03:18:48;;;;;;;7.68;1.85;;;;;;;7.83;66.89;100043.97;5055748;28;20442;-68
2022/09/03 03:21:17;;;;;;;7.22;1.75;;;;;;;7.82;66.39;100038.72;5055765;28;20401;-69
2022/09/03 03:23:44;;;;;;;2.90;1.70;;;;;;;7.85;66.44;100040.91;5055681;28;20129;-69
2022/09/03 03:26:13;;;;;;;3.03;1.95;;;;;;;7.83;66.36;100037.59;5055683;28;20408;-71
2022/09/03 03:28:41;;;;;;;4.15;1.70;;;;;;;7.86;66.40;100046.13;5055818;28;20052;-75
2022/09/03 03:31:13;;;;;;;2.80;1.60;;;;;;;7.90;66.51;100052.69;5055699;28;20053;-73
2022/09/03 03:33:41;;;;;;;3.53;1.88;;;;;;;7.96;66.19;100050.69;5055671;28;20067;-73
2022/09/03 03:36:11;;;;;;;3.45;1.73;;;;;;;7.98;66.30;100060.34;5038005;28;20048;-72
2022/09/03 03:38:39;;;;;;;4.65;1.52;;;;;;;7.97;66.32;100058.69;5037661;28;20053;-72
2022/09/03 03:41:11;;;;;;;3.47;1.52;;;;;;;8.00;66.11;100060.88;5055645;28;20072;-72
2022/09/03 03:43:38;;;;;;;3.65;1.88;;;;;;;8.01;66.29;100069.97;5037638;28;20052;-73
2022/09/03 03:46:05;;;;;;;6.50;1.92;;;;;;;8.03;66.13;100065.78;5055456;28;20128;-73
2022/09/03 03:48:32;;;;;;;4.72;1.52;;;;;;;8.05;66.19;100066.28;5073139;28;20440;-71
2022/09/03 03:51:03;;;;;;;3.42;1.52;;;;;;;8.05;66.15;100071.84;5075197;28;20396;-73
2022/09/03 03:53:30;;;;;;;;;;;;;;;7.93;66.20;100068.72;5075372;28;20052;-75
2022/09/03 03:55:59;;;;;;;5.20;1.73;;;;;;;7.95;66.25;100054.56;5075562;28;19924;-70
2022/09/03 03:58:28;;;;;;;2.33;1.42;;;;;;;8.07;66.22;100063.22;5075384;28;20060;-70
2022/09/03 04:00:54;;;;;;;6.55;2.03;;;;;;;8.12;66.02;100065.91;5074734;28;20057;-71
2022/09/03 04:03:21;;;;;;;3.60;1.63;;;;;;;8.15;65.82;100068.91;5074921;28;20105;-70
2022/09/03 04:05:59;;;;;;;3.08;1.70;;;;;;;8.29;65.73;100075.31;5074337;28;20048;-69
2022/09/03 04:08:26;;;;;;;11.43;2.25;;;;;;;8.28;65.46;100076.44;5075109;28;20053;-67
2022/09/03 04:10:57;;;;;;;3.30;1.52;;;;;;;8.31;66.10;100081.38;5074826;28;20079;-68
2022/09/03 04:13:31;;;;;;;7.57;2.17;;;;;;;8.35;65.12;100078.84;5075063;28;20099;-70
2022/09/03 04:16:13;;;;;;;5.03;1.92;;;;;;;8.30;65.45;100074.22;5075017;28;20044;-68
2022/09/03 04:18:41;;;;;;;4.32;2.03;;;;;;;8.26;65.64;100073.16;5057033;28;20106;-68
2022/09/03 04:21:10;;;;;;;5.88;2.30;;;;;;;8.32;65.59;100087.75;5074787;28;20450;-73
2022/09/03 04:23:40;;;;;;;6.53;2.35;;;;;;;8.35;65.17;100081.59;5057403;28;20045;-74
2022/09/03 04:26:08;;;;;;;6.60;2.20;;;;;;;8.37;65.63;100079.34;5054299;28;20075;-75
2022/09/03 04:28:35;;;;;;;6.35;2.03;;;;;;;8.41;64.75;100092.28;5054730;28;20460;-73
2022/09/03 04:31:07;;;;;;;8.25;2.20;;;;;;;8.46;64.84;100091.38;5036968;28;20411;-72
2022/09/03 04:33:36;;;;;;;6.65;2.47;;;;;;;8.43;64.75;100090.03;5054334;28;20056;-72
2022/09/03 04:36:08;;;;;;;2.75;1.67;;;;;;;8.46;64.90;100089.41;5054048;28;20152;-73
2022/09/03 04:38:36;;;;;;;5.65;2.15;;;;;;;8.53;64.57;100092.59;5054412;28;20530;-74
2022/09/03 04:41:05;;;;;;;4.10;1.73;;;;;;;8.63;64.38;100095.22;5036353;28;20060;-74
2022/09/03 04:43:32;;;;;;;5.25;2.25;;;;;;;8.68;64.57;100097.88;5054352;28;20045;-71
2022/09/03 04:46:02;;;;;;;3.78;1.83;;;;;;;8.72;64.24;100089.75;5054481;28;20063;-71
2022/09/03 04:48:30;;;;;;;4.75;2.13;;;;;;;8.75;64.16;100092.75;5036772;28;20427;-70
2022/09/03 04:51:12;;;;;;;4.18;1.92;;;;;;;8.81;64.31;100091.53;5054422;28;20412;-70
2022/09/03 04:53:44;;;;;;;3.38;2.10;;;;;;;8.90;63.43;100088.84;5053963;28;20065;-70
2022/09/03 04:56:20;;;;;;;5.53;2.13;;;;;;;8.97;63.37;100083.69;5053932;28;20076;-70
2022/09/03 04:58:48;;;;;;;3.88;2.13;;;;;;;9.05;63.16;100094.91;5053591;28;20052;-71
2022/09/03 05:01:24;;;;;;;3.65;2.25;;;;;;;9.14;63.07;100095.81;5036648;28;20140;-70
2022/09/03 05:03:54;;;;;;;3.50;2.08;;;;;;;9.18;62.96;100093.25;5053798;28;20516;-71
2022/09/03 05:06:21;;;;;;;6.20;2.00;;;;;;;9.24;63.47;100098.38;5053766;28;20140;-71
2022/09/03 05:08:49;;;;;;;3.70;2.20;;;;;;;9.37;62.91;100104.22;5054218;28;20049;-70
2022/09/03 05:11:17;;;;;;;3.53;2.13;;;;;;;9.42;62.48;100090.22;5054673;28;20045;-74
2022/09/03 05:13:49;;;;;;;3.50;1.52;;;;;;;9.47;62.57;100098.47;5053762;28;20052;-71
2022/09/03 05:16:17;;;;;;;6.70;1.83;;;;;;;9.49;62.02;100104.50;5019784;28;20048;-71
2022/09/03 05:18:45;;;;;;;3.20;2.00;;;;;;;9.53;62.75;100113.88;5053530;28;20064;-70
2022/09/03 05:21:15;;;;;;;2.83;1.73;;;;;;;9.60;62.56;100105.94;5053753;28;20048;-71
2022/09/03 05:23:44;;;;;;;5.68;2.08;;;;;;;9.62;61.95;100100.88;5053532;28;20056;-71
2022/09/03 05:26:13;;;;;;;4.03;1.77;;;;;;;9.72;61.75;100107.03;5053558;28;20047;-70
2022/09/03 05:28:42;;;;;;;3.13;1.77;;;;;;;9.87;61.41;100109.44;5053735;28;20044;-71
2022/09/03 05:31:12;;;;;;;3.30;1.85;;;;;;;10.00;61.11;100110.50;5053319;28;20279;-70
2022/09/03 05:33:44;;;;;;;5.00;1.88;;;;;;;10.21;60.56;100115.28;5035943;28;20052;-71
2022/09/03 05:36:14;;;;;;;2.55;1.55;;;;;;;10.29;60.11;100116.50;5053289;28;20143;-71
2022/09/03 05:38:42;;;;;;;4.18;2.13;;;;;;;10.30;60.51;100112.59;5053435;28;20064;-71
2022/09/03 05:41:11;;;;;;;3.55;1.98;;;;;;;10.41;59.50;100116.72;5053782;28;20147;-71
2022/09/03 05:43:38;;;;;;;3.85;1.75;;;;;;;10.65;59.34;100119.97;5053151;28;20057;-70
2022/09/03 05:46:08;;;;;;;7.78;1.90;;;;;;;11.43;57.24;100119.97;5053031;28;20531;-71
2022/09/03 05:48:36;;;;;;;6.10;2.10;;;;;;;11.34;57.62;100121.91;5034592;28;20059;-70
2022/09/03 05:51:21;;;;;;;5.05;1.92;;;;;;;11.59;57.13;100128.69;5033108;28;20288;-71
2022/09/03 05:53:48;;;;;;;3.60;1.70;;;;;;;11.56;57.17;100123.75;5032809;28;20057;-71
2022/09/03 05:56:17;;;;;;;4.32;1.98;;;;;;;11.54;57.49;100126.03;5033133;28;20568;-71
2022/09/03 05:58:50;;;;;;;4.60;1.90;;;;;;;11.79;56.72;100134.50;5032943;28;20428;-70
2022/09/03 06:01:24;;;;;;;3.03;1.70;;;;;;;12.17;55.92;100131.88;5032749;28;20468;-71
2022/09/03 06:04:02;;;;;;;4.03;1.70;;;;;;;12.34;55.37;100137.44;5032711;28;20049;-71
2022/09/03 06:06:31;;;;;;;2.65;1.55;;;;;;;13.11;53.02;100131.72;5032886;28;20045;-70
2022/09/03 06:09:01;;;;;;;3.47;1.85;;;;;;;14.09;50.96;100124.47;5032920;28;20050;-69
2022/09/03 06:11:29;;;;;;;6.95;2.33;;;;;;;15.56;47.80;100131.78;5032617;28;20049;-70
2022/09/03 06:14:01;;;;;;;2.55;1.48;;;;;;;15.61;46.52;100129.59;5032753;28;20508;-69
2022/09/03 06:16:28;;;;;;;4.80;2.25;;;;;;;15.67;46.93;100133.78;5041780;28;20067;-71
2022/09/03 06:18:59;;;;;;;6.30;1.75;;;;;;;17.25;43.82;100129.97;5052663;28;20385;-71
2022/09/03 06:21:26;;;;;;;4.53;2.10;;;;;;;18.44;41.24;100126.41;5034318;28;20531;-69
2022/09/03 06:23:56;;;;;;;3.50;1.73;;;;;;;18.48;41.05;100132.94;5052607;28;20048;-71
2022/09/03 06:26:29;;;;;;;7.22;1.60;;;;;;;18.87;40.35;100134.53;5052275;28;20061;-72
2022/09/03 06:28:56;;;;;;;2.72;1.40;;;;;;;18.48;40.51;100130.13;5051625;28;20045;-71
2022/09/03 06:31:24;;;;;;;2.85;1.02;;;;;;;17.91;42.09;100136.47;5052195;28;20110;-70
2022/09/03 06:33:53;;;;;;;3.40;1.08;;;;;;;17.89;41.67;100141.63;5052487;28;20094;-70
2022/09/03 06:36:22;;;;;;;3.13;1.25;;;;;;;17.82;41.16;100143.47;5052859;28;20045;-69
2022/09/03 06:38:54;;;;;;;2.33;1.10;;;;;;;17.26;41.33;100142.06;5034283;28;20045;-69
2022/09/03 06:41:32;;;;;;;0.77;0.52;;;;;;;16.49;42.11;100146.34;5052161;28;20435;-68
2022/09/03 06:44:10;;;;;;;3.78;0.85;;;;;;;16.19;42.62;100142.19;5052210;28;20136;-69
2022/09/03 06:46:41;;;;;;;3.20;1.27;;;;;;;15.96;43.04;100152.34;5049319;28;20385;-69
2022/09/03 06:49:09;;;;;;;3.92;1.00;;;;;;;15.39;43.72;100148.84;5032331;28;20049;-71
2022/09/03 06:51:37;;;;;;;4.07;0.90;;;;;;;15.04;45.01;100144.81;5032251;28;20045;-71
2022/09/03 06:54:07;;;;;;;4.00;0.85;;;;;;;14.73;45.32;100150.09;5032710;28;20497;-72
2022/09/03 06:56:35;;;;;;;4.70;1.17;;;;;;;14.55;45.74;100143.88;5032035;28;20054;-70
2022/09/03 06:59:12;;;;;;;2.28;1.10;;;;;;;14.26;46.11;100143.97;5015140;28;20049;-71
2022/09/03 07:01:40;;;;;;;5.35;2.17;;;;;;;14.08;46.44;100145.22;5032201;28;20056;-72
2022/09/03 07:04:12;;;;;;;5.00;1.92;;;;;;;14.07;46.63;100155.59;5032444;28;20564;-74
2022/09/03 07:06:41;;;;;;;6.20;1.17;;;;;;;14.33;46.04;100149.84;5031248;28;20053;-71
2022/09/03 07:09:11;;;;;;;8.32;1.00;;;;;;;14.98;44.33;100149.00;5032633;28;20049;-70
2022/09/03 07:11:45;;;;;;;2.22;1.02;;;;;;;14.68;44.54;100149.16;5032347;28;20439;-72
2022/09/03 07:14:14;;;;;;;2.17;1.02;;;;;;;14.28;45.54;100150.88;5032196;28;20580;-72
2022/09/03 07:16:42;;;;;;;2.45;0.88;;;;;;;14.07;46.37;100154.81;5032457;28;20038;-72
2022/09/03 07:19:09;;;;;;;6.15;1.00;;;;;;;14.11;46.25;100150.97;5032229;28;20121;-71
2022/09/03 07:21:36;;;;;;;5.55;1.15;;;;;;;14.13;45.86;100151.47;5032204;28;20133;-70
2022/09/03 07:24:04;;;;;;;1.63;0.90;;;;;;;13.92;46.32;100152.59;5020710;28;20063;-71
2022/09/03 07:26:43;;;;;;;4.45;1.02;;;;;;;13.81;46.67;100154.16;5052000;28;20052;-74
2022/09/03 07:29:11;;;;;;;2.90;0.80;;;;;;;13.73;46.93;100157.81;5052228;28;20127;-74
2022/09/03 07:31:40;;;;;;;4.10;1.08;;;;;;;14.06;46.17;100165.16;5033640;28;20045;-70
2022/09/03 07:34:10;;;;;;;2.03;1.00;;;;;;;14.17;45.68;100155.22;5052048;28;20527;-74
2022/09/03 07:36:44;;;;;;;3.72;0.80;;;;;;;14.17;45.61;100154.38;5034365;28;20045;-74
2022/09/03 07:39:16;;;;;;;1.02;0.70;;;;;;;14.59;44.52;100156.00;5051674;28;20087;-71
2022/09/03 07:41:45;;;;;;;1.13;0.80;;;;;;;15.78;42.61;100154.56;5052963;28;20091;-71
2022/09/03 07:44:14;;;;;;;1.23;0.80;;;;;;;16.97;40.01;100156.53;5055797;28;20041;-70
2022/09/03 07:46:42;;;;;;;2.00;0.88;;;;;;;17.22;38.86;100156.03;5055275;28;20069;-71
2022/09/03 07:49:09;;;;;;;4.13;2.10;;;;;;;16.93;40.00;100158.44;5055176;28;20076;-70
2022/09/03 07:51:38;;;;;;;1.67;0.93;;;;;;;17.08;39.97;100150.00;5055028;28;20044;-70
2022/09/03 07:54:08;;;;;;;1.50;0.80;;;;;;;16.95;40.11;100153.25;5055337;28;20103;-70
2022/09/03 07:56:37;;;;;;;3.08;1.27;;;;;;;16.35;41.18;100148.72;5055142;28;20045;-71
2022/09/03 07:59:04;;;;;;;3.22;1.10;;;;;;;15.94;41.91;100149.88;5055776;28;20195;-71
2022/09/03 08:01:33;;;;;;;3.03;1.60;;;;;;;18.07;38.19;100150.50;5055169;28;20163;-70
2022/09/03 08:04:02;;;;;;;3.40;0.98;;;;;;;21.41;32.46;100134.22;5055437;28;20579;-70
2022/09/03 08:06:31;;;;;;;1.35;0.63;;;;;;;23.79;29.01;100136.50;5054592;28;20049;-69
2022/09/03 08:09:04;;;;;;;0.98;0.70;;;;;;;24.24;28.07;100138.50;5055280;28;20446;-72
2022/09/03 08:11:39;;;;;;;2.38;0.90;;;;;;;27.21;24.59;100139.34;5054664;28;20530;-71
2022/09/03 08:14:10;;;;;;;5.80;0.75;;;;;;;27.74;23.74;100139.38;5046683;28;20045;-70
2022/09/03 08:16:44;;;;;;;3.13;1.15;;;;;;;28.02;23.03;100138.88;5034814;28;20071;-71
2022/09/03 08:19:12;;;;;;;2.85;1.38;;;;;;;32.57;18.62;100130.59;5034625;28;20050;-71
2022/09/03 08:21:40;;;;;;;1.15;0.73;;;;;;;32.98;18.17;100127.38;5034333;28;20596;-70
2022/09/03 08:24:09;;;;;;;1.67;0.80;;;;;;;31.46;18.47;100133.19;5035232;28;20060;-70
2022/09/03 08:26:40;;;;;;;4.45;1.15;;;;;;;29.28;20.76;100136.31;5034412;28;20053;-70
2022/09/03 08:29:08;;;;;;;2.17;1.00;;;;;;;26.88;22.87;100138.16;5034713;28;20050;-70
2022/09/03 08:31:35;;;;;;;1.42;0.70;;;;;;;31.46;18.36;100136.06;5034497;28;20065;-71
2022/09/03 08:34:05;;;;;;;2.95;0.70;;;;;;;35.98;14.47;100127.97;5034795;28;20049;-71
2022/09/03 08:36:36;;;;;;;1.65;0.80;;;;;;;38.39;11.91;100129.25;5016295;28;20547;-70
2022/09/03 08:39:08;;;;;;;1.98;0.82;;;;;;;38.86;11.98;100117.16;5034405;28;20121;-71
2022/09/03 08:42:04;;;;;;;2.25;0.90;;;;;;;38.52;12.05;100126.78;5034369;28;20159;-71
2022/09/03 08:44:55;;;;;;;2.78;0.70;;;;;;;41.00;10.45;100122.13;5034354;28;20400;-70
2022/09/03 08:47:40;;;;;;;3.25;0.68;;;;;;;41.49;9.95;100115.56;5033980;28;20095;-70
2022/09/03 08:50:17;;;;;;;3.88;1.13;;;;;;;40.69;10.17;100116.47;5034310;28;20068;-71
2022/09/03 08:52:50;;;;;;;4.80;1.10;;;;;;;38.28;11.40;100120.41;5043886;28;20114;-71
2022/09/03 08:55:24;;;;;;;7.30;0.80;;;;;;;37.76;12.06;100116.47;5054027;28;20419;-71
2022/09/03 08:58:17;;;;;;;1.15;0.55;;;;;;;35.89;13.28;100118.50;5053874;28;20045;-71
2022/09/03 09:00:51;;;;;;;2.05;0.80;;;;;;;34.92;14.30;100108.38;5035944;28;20500;-71
2022/09/03 09:03:34;;;;;;;3.20;0.90;;;;;;;36.54;12.25;100113.41;5019435;28;20088;-74
2022/09/03 09:06:20;;;;;;;0.77;0.70;;;;;;;39.19;10.31;100113.84;5035729;28;20151;-71
2022/09/03 09:09:00;;;;;;;7.78;1.00;;;;;;;41.50;9.53;100114.25;5035441;28;20044;-72
2022/09/03 09:11:40;;;;;;;1.15;0.82;;;;;;;43.88;7.75;100113.94;5053618;28;20049;-71
2022/09/03 09:14:32;;;;;;;0.95;0.77;;;;;;;43.90;7.46;100114.19;5053566;28;20064;-71
2022/09/03 09:17:36;;;;;;;1.10;0.80;;;;;;;44.86;7.11;100104.47;5053475;28;20049;-72
2022/09/03 09:20:43;;;;;;;1.33;0.70;;;;;;;43.32;7.48;100106.94;5053680;28;20052;-70
2022/09/03 09:23:37;;;;;;;0.73;0.65;;;;;;;42.24;8.27;100100.56;5053251;28;20051;-71
2022/09/03 09:26:10;;;;;;;1.13;0.85;;;;;;;43.42;7.33;100099.41;5039774;28;20068;-72
2022/09/03 09:28:38;;;;;;;4.43;0.93;;;;;;;44.40;6.63;100093.91;5053268;28;20052;-70
2022/09/03 09:31:11;;;;;;;1.60;0.70;;;;;;;38.24;9.72;100100.28;5054200;28;20412;-71
2022/09/03 09:33:38;;;;;;;1.25;0.60;;;;;;;31.55;13.84;100104.53;5053475;28;20484;-70
2022/09/03 09:36:09;;;;;;;2.78;0.75;;;;;;;29.27;16.13;100111.78;5053565;28;20041;-74
2022/09/03 09:38:38;;;;;;;1.33;0.65;;;;;;;30.05;14.66;100108.56;5053472;28;20140;-71
2022/09/03 09:41:09;;;;;;;;;;;;;;;27.47;16.73;100105.06;5053175;28;20127;-71
2022/09/03 09:43:37;;;;;;;3.47;0.73;;;;;;;24.98;18.94;100104.88;5053167;28;19928;-70
2022/09/03 09:46:18;;;;;;;0.85;0.55;;;;;;;23.63;20.68;100113.41;5035789;28;20053;-70
2022/09/03 09:48:52;;;;;;;8.55;0.82;;;;;;;22.79;21.68;100106.34;5016093;28;20073;-70
2022/09/03 09:51:24;;;;;;;1.30;0.80;;;;;;;22.00;22.38;100105.56;5032856;28;20147;-70
2022/09/03 09:54:13;;;;;;;1.35;0.80;;;;;;;21.15;23.44;100108.91;5032810;28;20460;-70
2022/09/03 09:56:42;;;;;;;2.33;0.68;;;;;;;20.55;24.23;100104.56;5032694;28;20145;-70
2022/09/03 09:59:11;;;;;;;0.68;0.57;;;;;;;20.54;24.41;100103.75;5033028;28;20572;-71
2022/09/03 10:01:40;;;;;;;0.47;0.47;;;;;;;20.51;24.48;100100.88;5032945;28;20416;-71
2022/09/03 10:04:30;;;;;;;6.07;0.85;;;;;;;19.93;25.32;100103.31;5032136;28;20041;-71
2022/09/03 10:07:25;;;;;;;1.42;0.57;;;;;;;19.38;26.02;100093.59;5032973;28;20053;-72
2022/09/03 10:10:06;;;;;;;4.28;0.60;;;;;;;18.92;26.67;100096.75;5032877;28;20052;-71
2022/09/03 10:12:41;;;;;;;3.70;1.02;;;;;;;18.63;27.10;100094.59;5032418;28;20144;-72
2022/09/03 10:15:16;;;;;;;1.58;0.90;;;;;;;18.87;26.86;100095.06;5032807;28;20053;-71
2022/09/03 10:18:07;;;;;;;1.10;0.90;;;;;;;18.74;27.37;100093.59;5048115;28;20055;-72
2022/09/03 10:21:21;;;;;;;3.85;0.60;;;;;;;18.68;27.66;100097.91;5052604;28;20045;-74
2022/09/03 10:24:15;;;;;;;4.50;0.95;;;;;;;18.50;27.88;100096.75;5010741;28;20083;-71
2022/09/03 10:26:44;;;;;;;2.50;0.60;;;;;;;18.42;28.01;100094.97;5010583;28;20077;-70
2022/09/03 10:29:18;;;;;;;1.23;0.50;;;;;;;18.03;28.79;100104.56;5010816;28;20432;-71
2022/09/03 10:32:12;;;;;;;1.83;0.70;;;;;;;17.61;29.52;100109.19;5010745;28;20052;-70
2022/09/03 10:34:57;;;;;;;0.55;0.43;;;;;;;17.29;30.36;100107.59;5010736;28;20054;-72
2022/09/03 10:37:34;;;;;;;1.95;0.60;;;;;;;17.19;30.29;100105.31;5011014;28;20132;-71
2022/09/03 10:40:13;;;;;;;1.13;0.65;;;;;;;17.12;30.79;100105.13;5011111;28;20089;-72
2022/09/03 10:43:04;;;;;;;0.85;0.60;;;;;;;16.98;31.24;100093.50;5010436;28;20050;-71
2022/09/03 10:45:46;;;;;;;1.00;0.70;;;;;;;17.13;31.16;100115.19;5010565;28;20129;-73
2022/09/03 10:48:23;;;;;;;0.98;0.63;;;;;;;17.31;31.02;100110.84;5010955;28;20088;-70
2022/09/03 10:51:07;;;;;;;2.13;0.70;;;;;;;17.54;30.81;100120.28;5010881;28;20136;-71
2022/09/03 10:53:48;;;;;;;3.47;0.70;;;;;;;18.11;30.20;100112.78;5011697;28;20062;-72
2022/09/03 10:56:48;;;;;;;10.32;1.88;;;;;;;18.38;30.25;100122.25;5032708;28;20049;-71
2022/09/03 10:59:40;;;;;;;9.93;1.02;;;;;;;18.00;31.25;100116.56;5032377;28;20504;-70
2022/09/03 11:02:14;;;;;;;1.58;0.75;;;;;;;18.16;30.83;100104.06;5032261;28;20034;-71
2022/09/03 11:05:09;;;;;;;1.35;0.70;;;;;;;18.41;30.27;100107.41;5032188;28;20053;-70
2022/09/03 11:07:50;;;;;;;2.58;0.80;;;;;;;18.40;30.15;100108.63;5032283;28;20045;-71
2022/09/03 11:10:27;;;;;;;1.85;0.85;;;;;;;18.35;29.99;100099.63;5032136;28;20068;-71
2022/09/03 11:12:56;;;;;;;0.93;0.60;;;;;;;18.26;29.88;100102.66;5032280;28;20601;-70
2022/09/03 11:15:32;;;;;;;3.33;0.52;;;;;;;17.83;29.95;100094.47;5033309;28;20049;-72
2022/09/03 11:18:10;;;;;;;4.78;0.70;;;;;;;17.29;31.04;100096.34;5018239;28;20045;-70
2022/09/03 11:20:39;;;;;;;3.38;0.80;;;;;;;16.97;31.56;100105.94;5035896;28;20053;-72
2022/09/03 11:23:08;;;;;;;2.03;0.90;;;;;;;16.92;31.55;100103.38;5018597;28;20055;-71
2022/09/03 11:26:04;;;;;;;2.05;1.10;;;;;;;16.84;31.71;100110.03;5035645;28;20057;-71
2022/09/03 11:29:22;;;;;;;1.35;0.73;;;;;;;16.89;31.94;100099.31;5049227;28;20060;-71
2022/09/03 11:32:00;;;;;;;2.63;0.80;;;;;;;16.80;32.21;100103.47;5022616;28;20090;-70
2022/09/03 11:34:31;;;;;;;1.38;0.80;;;;;;;16.84;32.62;100102.38;5055970;28;20059;-71
2022/09/03 11:37:29;;;;;;;1.55;0.77;;;;;;;16.91;32.74;100090.53;5055479;28;20066;-71
2022/09/03 11:40:15;;;;;;;2.92;0.90;;;;;;;16.90;33.04;100094.53;5054603;28;20064;-72
2022/09/03 11:42:43;;;;;;;0.93;0.60;;;;;;;16.74;33.63;100083.25;5054393;28;20056;-71
2022/09/03 11:45:30;;;;;;;0.90;0.60;;;;;;;16.84;33.09;100079.09;5054225;28;20049;-71
2022/09/03 11:47:58;;;;;;;0.85;0.65;;;;;;;16.93;32.50;100066.50;5055006;28;20103;-73
2022/09/03 11:50:32;;;;;;;1.40;0.85;;;;;;;17.08;31.88;100079.72;5037162;28;20060;-71
2022/09/03 11:53:09;;;;;;;1.63;0.70;;;;;;;17.07;32.02;100074.47;5054848;28;20061;-70
2022/09/03 11:55:58;;;;;;;1.02;0.60;;;;;;;16.98;32.09;100073.84;5055495;28;20071;-71
2022/09/03 11:58:29;;;;;;;1.25;0.70;;;;;;;16.85;31.81;100075.09;5055349;28;20520;-71
2022/09/03 12:00:59;;;;;;;4.13;0.70;;;;;;;16.92;31.92;100069.66;5036880;28;20152;-72
2022/09/03 12:03:46;;;;;;;0.77;0.60;;;;;;;16.96;31.84;100064.97;5055128;28;20559;-71
2022/09/03 12:06:42;;;;;;;2.22;0.80;;;;;;;16.86;32.03;100065.50;5055402;28;20132;-71
2022/09/03 12:09:33;;;;;;;3.08;0.73;;;;;;;16.94;31.84;100058.88;5055264;28;20041;-70